sensor_id;sensor_type;location;lat;lon;timestamp;P1;durP1;ratioP1;P2;durP2;ratioP2
39066;SDS011;24821;51.988;6.020;2023-02-11T00:00:04;7.30;;;6.13;;
39066;SDS011;24821;51.988;6.020;2023-02-11T00:02:31;10.88;;;6.78;;
39066;SDS011;24821;51.988;6.020;2023-02-11T00:04:57;8.73;;;5.65;;
39066;SDS011;24821;51.988;6.020;2023-02-11T00:07:22;9.13;;;5.78;;
39066;SDS011;24821;51.988;6.020;2023-02-11T00:09:48;10.82;;;5.65;;
39066;SDS011;24821;51.988;6.020;2023-02-11T00:12:14;5.85;;;4.63;;
39066;SDS011;24821;51.988;6.020;2023-02-11T00:14:40;6.53;;;4.68;;
39066;SDS011;24821;51.988;6.020;2023-02-11T00:17:05;8.57;;;5.13;;
39066;SDS011;24821;51.988;6.020;2023-02-11T00:19:31;4.30;;;3.90;;
39066;SDS011;24821;51.988;6.020;2023-02-11T00:21:56;9.25;;;4.13;;
39066;SDS011;24821;51.988;6.020;2023-02-11T00:24:22;7.78;;;4.80;;
39066;SDS011;24821;51.988;6.020;2023-02-11T00:26:47;13.25;;;3.92;;
39066;SDS011;24821;51.988;6.020;2023-02-11T00:29:13;15.55;;;3.55;;
39066;SDS011;24821;51.988;6.020;2023-02-11T00:31:38;8.70;;;3.08;;
39066;SDS011;24821;51.988;6.020;2023-02-11T00:34:04;4.15;;;3.83;;
39066;SDS011;24821;51.988;6.020;2023-02-11T00:36:29;4.97;;;4.30;;
39066;SDS011;24821;51.988;6.020;2023-02-11T00:38:55;11.27;;;4.03;;
39066;SDS011;24821;51.988;6.020;2023-02-11T00:41:22;8.88;;;3.78;;
39066;SDS011;24821;51.988;6.020;2023-02-11T00:43:47;7.00;;;3.97;;
39066;SDS011;24821;51.988;6.020;2023-02-11T00:46:14;5.10;;;3.15;;
39066;SDS011;24821;51.988;6.020;2023-02-11T00:48:40;5.22;;;3.60;;
39066;SDS011;24821;51.988;6.020;2023-02-11T00:51:05;4.40;;;3.80;;
39066;SDS011;24821;51.988;6.020;2023-02-11T00:53:32;9.30;;;4.50;;
39066;SDS011;24821;51.988;6.020;2023-02-11T00:55:58;5.57;;;3.53;;
39066;SDS011;24821;51.988;6.020;2023-02-11T00:58:24;6.18;;;4.13;;
39066;SDS011;24821;51.988;6.020;2023-02-11T01:00:51;5.28;;;3.20;;
39066;SDS011;24821;51.988;6.020;2023-02-11T01:03:17;4.43;;;4.03;;
39066;SDS011;24821;51.988;6.020;2023-02-11T01:05:43;3.83;;;3.17;;
39066;SDS011;24821;51.988;6.020;2023-02-11T01:08:08;7.45;;;3.47;;
39066;SDS011;24821;51.988;6.020;2023-02-11T01:10:34;7.88;;;4.50;;
39066;SDS011;24821;51.988;6.020;2023-02-11T01:13:00;3.35;;;3.03;;
39066;SDS011;24821;51.988;6.020;2023-02-11T01:15:26;6.20;;;3.60;;
39066;SDS011;24821;51.988;6.020;2023-02-11T01:17:52;4.80;;;3.13;;
39066;SDS011;24821;51.988;6.020;2023-02-11T01:20:20;5.65;;;4.05;;
39066;SDS011;24821;51.988;6.020;2023-02-11T01:22:49;3.65;;;3.35;;
39066;SDS011;24821;51.988;6.020;2023-02-11T01:25:15;4.43;;;4.03;;
39066;SDS011;24821;51.988;6.020;2023-02-11T01:27:40;5.60;;;3.53;;
39066;SDS011;24821;51.988;6.020;2023-02-11T01:30:07;4.28;;;3.63;;
39066;SDS011;24821;51.988;6.020;2023-02-11T01:32:33;9.68;;;3.97;;
39066;SDS011;24821;51.988;6.020;2023-02-11T01:34:59;9.45;;;3.95;;
39066;SDS011;24821;51.988;6.020;2023-02-11T01:37:25;3.40;;;3.05;;
39066;SDS011;24821;51.988;6.020;2023-02-11T01:39:51;3.88;;;3.15;;
39066;SDS011;24821;51.988;6.020;2023-02-11T01:42:17;9.45;;;3.63;;
39066;SDS011;24821;51.988;6.020;2023-02-11T01:44:45;5.25;;;4.43;;
39066;SDS011;24821;51.988;6.020;2023-02-11T01:47:15;12.00;;;4.32;;
39066;SDS011;24821;51.988;6.020;2023-02-11T01:49:42;5.28;;;4.05;;
39066;SDS011;24821;51.988;6.020;2023-02-11T01:54:50;6.30;;;3.38;;
39066;SDS011;24821;51.988;6.020;2023-02-11T01:57:37;7.90;;;4.30;;
39066;SDS011;24821;51.988;6.020;2023-02-11T02:00:09;7.32;;;3.65;;
39066;SDS011;24821;51.988;6.020;2023-02-11T02:02:48;6.65;;;3.38;;
39066;SDS011;24821;51.988;6.020;2023-02-11T02:10:29;9.20;;;3.70;;
39066;SDS011;24821;51.988;6.020;2023-02-11T02:12:57;8.50;;;3.95;;
39066;SDS011;24821;51.988;6.020;2023-02-11T02:15:31;14.38;;;4.22;;
39066;SDS011;24821;51.988;6.020;2023-02-11T02:17:59;3.63;;;3.25;;
39066;SDS011;24821;51.988;6.020;2023-02-11T02:29:49;7.47;;;4.15;;
39066;SDS011;24821;51.988;6.020;2023-02-11T02:32:42;8.48;;;2.95;;
39066;SDS011;24821;51.988;6.020;2023-02-11T02:40:54;3.58;;;3.13;;
39066;SDS011;24821;51.988;6.020;2023-02-11T02:43:24;7.43;;;3.28;;
39066;SDS011;24821;51.988;6.020;2023-02-11T02:45:51;9.10;;;3.55;;
39066;SDS011;24821;51.988;6.020;2023-02-11T02:48:28;7.40;;;4.00;;
39066;SDS011;24821;51.988;6.020;2023-02-11T02:51:08;4.60;;;3.08;;
39066;SDS011;24821;51.988;6.020;2023-02-11T02:54:20;5.00;;;2.97;;
39066;SDS011;24821;51.988;6.020;2023-02-11T02:56:55;8.20;;;3.50;;
39066;SDS011;24821;51.988;6.020;2023-02-11T03:05:47;10.02;;;5.03;;
39066;SDS011;24821;51.988;6.020;2023-02-11T03:10:47;10.88;;;3.80;;
39066;SDS011;24821;51.988;6.020;2023-02-11T03:13:15;3.72;;;3.03;;
39066;SDS011;24821;51.988;6.020;2023-02-11T03:15:46;6.10;;;3.80;;
39066;SDS011;24821;51.988;6.020;2023-02-11T03:18:15;8.13;;;3.45;;
39066;SDS011;24821;51.988;6.020;2023-02-11T03:20:43;6.60;;;4.20;;
39066;SDS011;24821;51.988;6.020;2023-02-11T03:25:44;5.57;;;3.13;;
39066;SDS011;24821;51.988;6.020;2023-02-11T03:28:16;7.82;;;4.55;;
39066;SDS011;24821;51.988;6.020;2023-02-11T03:31:07;7.20;;;3.30;;
39066;SDS011;24821;51.988;6.020;2023-02-11T03:36:23;10.65;;;4.55;;
39066;SDS011;24821;51.988;6.020;2023-02-11T03:38:56;6.50;;;3.22;;
39066;SDS011;24821;51.988;6.020;2023-02-11T03:41:25;9.55;;;3.33;;
39066;SDS011;24821;51.988;6.020;2023-02-11T03:43:53;5.97;;;4.28;;
39066;SDS011;24821;51.988;6.020;2023-02-11T03:46:24;3.50;;;3.20;;
39066;SDS011;24821;51.988;6.020;2023-02-11T03:49:02;10.15;;;4.68;;
39066;SDS011;24821;51.988;6.020;2023-02-11T03:51:30;12.55;;;4.53;;
39066;SDS011;24821;51.988;6.020;2023-02-11T03:53:57;5.45;;;3.40;;
39066;SDS011;24821;51.988;6.020;2023-02-11T03:56:28;5.53;;;3.25;;
39066;SDS011;24821;51.988;6.020;2023-02-11T03:58:57;6.90;;;3.70;;
39066;SDS011;24821;51.988;6.020;2023-02-11T04:01:22;13.32;;;4.82;;
39066;SDS011;24821;51.988;6.020;2023-02-11T04:03:48;11.05;;;3.67;;
39066;SDS011;24821;51.988;6.020;2023-02-11T04:06:13;9.73;;;5.18;;
39066;SDS011;24821;51.988;6.020;2023-02-11T04:08:39;3.70;;;3.30;;
39066;SDS011;24821;51.988;6.020;2023-02-11T04:11:05;6.00;;;3.47;;
39066;SDS011;24821;51.988;6.020;2023-02-11T04:13:30;8.48;;;3.65;;
39066;SDS011;24821;51.988;6.020;2023-02-11T04:15:56;7.97;;;4.97;;
39066;SDS011;24821;51.988;6.020;2023-02-11T04:18:21;5.60;;;3.80;;
39066;SDS011;24821;51.988;6.020;2023-02-11T04:20:47;11.50;;;4.93;;
39066;SDS011;24821;51.988;6.020;2023-02-11T04:23:14;7.35;;;4.85;;
39066;SDS011;24821;51.988;6.020;2023-02-11T04:25:40;10.00;;;4.40;;
39066;SDS011;24821;51.988;6.020;2023-02-11T04:28:06;13.80;;;4.78;;
39066;SDS011;24821;51.988;6.020;2023-02-11T04:30:32;19.73;;;5.03;;
39066;SDS011;24821;51.988;6.020;2023-02-11T04:32:57;11.63;;;5.53;;
39066;SDS011;24821;51.988;6.020;2023-02-11T04:35:23;4.05;;;3.75;;
39066;SDS011;24821;51.988;6.020;2023-02-11T04:37:49;20.33;;;5.10;;
39066;SDS011;24821;51.988;6.020;2023-02-11T04:40:14;7.78;;;5.68;;
39066;SDS011;24821;51.988;6.020;2023-02-11T04:42:40;7.15;;;5.07;;
39066;SDS011;24821;51.988;6.020;2023-02-11T04:45:06;8.52;;;4.40;;
39066;SDS011;24821;51.988;6.020;2023-02-11T04:47:32;13.05;;;5.75;;
39066;SDS011;24821;51.988;6.020;2023-02-11T04:49:58;11.35;;;5.55;;
39066;SDS011;24821;51.988;6.020;2023-02-11T04:52:23;10.27;;;5.13;;
39066;SDS011;24821;51.988;6.020;2023-02-11T04:54:49;8.52;;;4.88;;
39066;SDS011;24821;51.988;6.020;2023-02-11T04:57:14;15.60;;;5.22;;
39066;SDS011;24821;51.988;6.020;2023-02-11T04:59:40;9.40;;;6.75;;
39066;SDS011;24821;51.988;6.020;2023-02-11T05:02:06;5.63;;;4.68;;
39066;SDS011;24821;51.988;6.020;2023-02-11T05:04:32;7.20;;;4.28;;
39066;SDS011;24821;51.988;6.020;2023-02-11T05:06:57;8.40;;;5.07;;
39066;SDS011;24821;51.988;6.020;2023-02-11T05:09:23;15.82;;;5.65;;
39066;SDS011;24821;51.988;6.020;2023-02-11T05:11:48;10.63;;;5.70;;
39066;SDS011;24821;51.988;6.020;2023-02-11T05:14:14;6.25;;;5.05;;
39066;SDS011;24821;51.988;6.020;2023-02-11T05:16:39;7.68;;;6.05;;
39066;SDS011;24821;51.988;6.020;2023-02-11T05:19:05;14.32;;;5.55;;
39066;SDS011;24821;51.988;6.020;2023-02-11T05:21:30;11.35;;;6.70;;
39066;SDS011;24821;51.988;6.020;2023-02-11T05:23:56;15.38;;;6.55;;
39066;SDS011;24821;51.988;6.020;2023-02-11T05:26:21;11.18;;;7.90;;
39066;SDS011;24821;51.988;6.020;2023-02-11T05:28:47;15.82;;;6.85;;
39066;SDS011;24821;51.988;6.020;2023-02-11T05:31:13;8.60;;;6.03;;
39066;SDS011;24821;51.988;6.020;2023-02-11T05:33:38;8.43;;;7.45;;
39066;SDS011;24821;51.988;6.020;2023-02-11T05:36:06;14.07;;;7.38;;
39066;SDS011;24821;51.988;6.020;2023-02-11T05:38:34;9.18;;;5.72;;
39066;SDS011;24821;51.988;6.020;2023-02-11T05:41:00;12.45;;;6.85;;
39066;SDS011;24821;51.988;6.020;2023-02-11T05:43:26;11.85;;;7.13;;
39066;SDS011;24821;51.988;6.020;2023-02-11T05:45:51;15.00;;;7.60;;
39066;SDS011;24821;51.988;6.020;2023-02-11T05:48:17;19.05;;;5.32;;
39066;SDS011;24821;51.988;6.020;2023-02-11T05:50:43;7.07;;;6.43;;
39066;SDS011;24821;51.988;6.020;2023-02-11T05:53:09;13.82;;;6.28;;
39066;SDS011;24821;51.988;6.020;2023-02-11T05:55:35;11.70;;;5.93;;
39066;SDS011;24821;51.988;6.020;2023-02-11T05:58:01;10.63;;;7.50;;
39066;SDS011;24821;51.988;6.020;2023-02-11T06:00:26;9.77;;;7.50;;
39066;SDS011;24821;51.988;6.020;2023-02-11T06:02:52;10.80;;;6.53;;
39066;SDS011;24821;51.988;6.020;2023-02-11T06:05:18;7.88;;;6.43;;
39066;SDS011;24821;51.988;6.020;2023-02-11T06:07:44;13.00;;;6.60;;
39066;SDS011;24821;51.988;6.020;2023-02-11T06:10:09;15.27;;;7.85;;
39066;SDS011;24821;51.988;6.020;2023-02-11T06:12:36;6.55;;;5.88;;
39066;SDS011;24821;51.988;6.020;2023-02-11T06:15:02;9.35;;;7.13;;
39066;SDS011;24821;51.988;6.020;2023-02-11T06:17:29;12.05;;;7.38;;
39066;SDS011;24821;51.988;6.020;2023-02-11T06:19:57;10.18;;;7.70;;
39066;SDS011;24821;51.988;6.020;2023-02-11T06:22:26;10.10;;;7.25;;
39066;SDS011;24821;51.988;6.020;2023-02-11T06:24:52;11.68;;;7.68;;
39066;SDS011;24821;51.988;6.020;2023-02-11T06:27:18;10.80;;;7.50;;
39066;SDS011;24821;51.988;6.020;2023-02-11T06:29:44;11.32;;;8.23;;
39066;SDS011;24821;51.988;6.020;2023-02-11T06:32:11;8.43;;;6.53;;
39066;SDS011;24821;51.988;6.020;2023-02-11T06:34:37;11.38;;;8.50;;
39066;SDS011;24821;51.988;6.020;2023-02-11T06:37:03;12.90;;;8.00;;
39066;SDS011;24821;51.988;6.020;2023-02-11T06:39:28;16.80;;;9.30;;
39066;SDS011;24821;51.988;6.020;2023-02-11T06:41:54;12.63;;;8.07;;
39066;SDS011;24821;51.988;6.020;2023-02-11T06:44:19;15.75;;;8.15;;
39066;SDS011;24821;51.988;6.020;2023-02-11T06:46:45;14.45;;;7.45;;
39066;SDS011;24821;51.988;6.020;2023-02-11T06:49:11;10.70;;;7.75;;
39066;SDS011;24821;51.988;6.020;2023-02-11T06:51:37;12.48;;;8.75;;
39066;SDS011;24821;51.988;6.020;2023-02-11T06:54:03;19.23;;;9.13;;
39066;SDS011;24821;51.988;6.020;2023-02-11T06:56:29;11.38;;;9.90;;
39066;SDS011;24821;51.988;6.020;2023-02-11T06:58:55;11.07;;;8.38;;
39066;SDS011;24821;51.988;6.020;2023-02-11T07:01:21;14.50;;;10.38;;
39066;SDS011;24821;51.988;6.020;2023-02-11T07:03:48;21.42;;;9.73;;
39066;SDS011;24821;51.988;6.020;2023-02-11T07:06:22;17.38;;;11.00;;
39066;SDS011;24821;51.988;6.020;2023-02-11T07:08:50;20.63;;;9.18;;
39066;SDS011;24821;51.988;6.020;2023-02-11T07:11:20;14.10;;;9.57;;
39066;SDS011;24821;51.988;6.020;2023-02-11T07:13:51;20.17;;;10.20;;
39066;SDS011;24821;51.988;6.020;2023-02-11T07:16:19;20.17;;;8.82;;
39066;SDS011;24821;51.988;6.020;2023-02-11T07:18:45;29.30;;;10.30;;
39066;SDS011;24821;51.988;6.020;2023-02-11T07:21:13;15.77;;;10.02;;
39066;SDS011;24821;51.988;6.020;2023-02-11T07:23:40;10.45;;;8.68;;
39066;SDS011;24821;51.988;6.020;2023-02-11T07:26:07;24.10;;;10.73;;
39066;SDS011;24821;51.988;6.020;2023-02-11T07:28:38;26.35;;;12.68;;
39066;SDS011;24821;51.988;6.020;2023-02-11T07:31:05;16.05;;;11.15;;
39066;SDS011;24821;51.988;6.020;2023-02-11T07:33:32;20.70;;;13.25;;
39066;SDS011;24821;51.988;6.020;2023-02-11T07:35:59;15.82;;;10.18;;
39066;SDS011;24821;51.988;6.020;2023-02-11T07:38:25;26.05;;;12.10;;
39066;SDS011;24821;51.988;6.020;2023-02-11T07:40:51;18.45;;;10.38;;
39066;SDS011;24821;51.988;6.020;2023-02-11T07:43:16;19.35;;;11.48;;
39066;SDS011;24821;51.988;6.020;2023-02-11T07:45:42;19.15;;;10.45;;
39066;SDS011;24821;51.988;6.020;2023-02-11T07:48:07;21.88;;;12.73;;
39066;SDS011;24821;51.988;6.020;2023-02-11T07:50:33;22.17;;;10.82;;
39066;SDS011;24821;51.988;6.020;2023-02-11T07:52:59;12.02;;;10.00;;
39066;SDS011;24821;51.988;6.020;2023-02-11T07:55:24;17.33;;;10.88;;
39066;SDS011;24821;51.988;6.020;2023-02-11T07:57:50;21.10;;;12.88;;
39066;SDS011;24821;51.988;6.020;2023-02-11T08:00:15;26.75;;;12.05;;
39066;SDS011;24821;51.988;6.020;2023-02-11T08:02:41;16.70;;;12.75;;
39066;SDS011;24821;51.988;6.020;2023-02-11T08:05:07;21.05;;;13.32;;
39066;SDS011;24821;51.988;6.020;2023-02-11T08:07:32;22.08;;;11.77;;
39066;SDS011;24821;51.988;6.020;2023-02-11T08:09:58;18.70;;;14.48;;
39066;SDS011;24821;51.988;6.020;2023-02-11T08:12:23;21.45;;;13.20;;
39066;SDS011;24821;51.988;6.020;2023-02-11T08:14:49;29.95;;;13.30;;
39066;SDS011;24821;51.988;6.020;2023-02-11T08:17:15;17.23;;;13.43;;
39066;SDS011;24821;51.988;6.020;2023-02-11T08:19:41;29.27;;;13.32;;
39066;SDS011;24821;51.988;6.020;2023-02-11T08:22:06;19.60;;;12.77;;
39066;SDS011;24821;51.988;6.020;2023-02-11T08:24:32;24.35;;;14.30;;
39066;SDS011;24821;51.988;6.020;2023-02-11T08:26:58;19.92;;;14.70;;
39066;SDS011;24821;51.988;6.020;2023-02-11T08:29:23;22.15;;;13.00;;
39066;SDS011;24821;51.988;6.020;2023-02-11T08:31:49;15.55;;;11.77;;
39066;SDS011;24821;51.988;6.020;2023-02-11T08:34:15;27.58;;;12.95;;
39066;SDS011;24821;51.988;6.020;2023-02-11T08:36:44;27.83;;;15.27;;
39066;SDS011;24821;51.988;6.020;2023-02-11T08:39:12;28.02;;;14.85;;
39066;SDS011;24821;51.988;6.020;2023-02-11T08:41:40;32.60;;;13.80;;
39066;SDS011;24821;51.988;6.020;2023-02-11T08:44:05;24.10;;;13.70;;
39066;SDS011;24821;51.988;6.020;2023-02-11T08:46:31;31.48;;;15.18;;
39066;SDS011;24821;51.988;6.020;2023-02-11T08:48:57;25.35;;;14.40;;
39066;SDS011;24821;51.988;6.020;2023-02-11T08:51:23;24.30;;;15.20;;
39066;SDS011;24821;51.988;6.020;2023-02-11T08:53:52;39.47;;;16.23;;
39066;SDS011;24821;51.988;6.020;2023-02-11T08:56:18;28.63;;;14.25;;
39066;SDS011;24821;51.988;6.020;2023-02-11T08:58:45;25.08;;;14.38;;
39066;SDS011;24821;51.988;6.020;2023-02-11T09:01:12;33.13;;;15.75;;
39066;SDS011;24821;51.988;6.020;2023-02-11T09:03:39;24.05;;;13.32;;
39066;SDS011;24821;51.988;6.020;2023-02-11T09:06:05;26.23;;;16.27;;
39066;SDS011;24821;51.988;6.020;2023-02-11T09:08:39;24.58;;;14.07;;
39066;SDS011;24821;51.988;6.020;2023-02-11T09:11:07;32.78;;;17.55;;
39066;SDS011;24821;51.988;6.020;2023-02-11T09:13:34;25.75;;;16.67;;
39066;SDS011;24821;51.988;6.020;2023-02-11T09:16:00;26.63;;;15.98;;
39066;SDS011;24821;51.988;6.020;2023-02-11T09:18:27;18.92;;;12.80;;
39066;SDS011;24821;51.988;6.020;2023-02-11T09:20:57;33.20;;;16.23;;
39066;SDS011;24821;51.988;6.020;2023-02-11T09:23:32;30.90;;;15.90;;
39066;SDS011;24821;51.988;6.020;2023-02-11T09:26:06;30.98;;;13.90;;
39066;SDS011;24821;51.988;6.020;2023-02-11T09:28:33;23.70;;;16.17;;
39066;SDS011;24821;51.988;6.020;2023-02-11T09:31:03;28.92;;;16.83;;
39066;SDS011;24821;51.988;6.020;2023-02-11T09:33:30;25.80;;;15.40;;
39066;SDS011;24821;51.988;6.020;2023-02-11T09:35:59;26.48;;;16.45;;
39066;SDS011;24821;51.988;6.020;2023-02-11T09:38:25;32.22;;;15.70;;
39066;SDS011;24821;51.988;6.020;2023-02-11T09:40:51;21.08;;;14.07;;
39066;SDS011;24821;51.988;6.020;2023-02-11T09:43:18;27.52;;;18.05;;
39066;SDS011;24821;51.988;6.020;2023-02-11T09:45:46;29.85;;;18.58;;
39066;SDS011;24821;51.988;6.020;2023-02-11T09:48:16;26.98;;;17.05;;
39066;SDS011;24821;51.988;6.020;2023-02-11T09:50:53;28.00;;;20.48;;
39066;SDS011;24821;51.988;6.020;2023-02-11T09:53:28;26.85;;;17.55;;
39066;SDS011;24821;51.988;6.020;2023-02-11T09:56:00;34.17;;;19.33;;
39066;SDS011;24821;51.988;6.020;2023-02-11T09:58:30;24.10;;;16.80;;
39066;SDS011;24821;51.988;6.020;2023-02-11T10:01:15;21.48;;;14.75;;
39066;SDS011;24821;51.988;6.020;2023-02-11T10:06:46;21.98;;;15.40;;
39066;SDS011;24821;51.988;6.020;2023-02-11T10:23:35;22.27;;;16.20;;
39066;SDS011;24821;51.988;6.020;2023-02-11T10:25:56;22.92;;;15.45;;
39066;SDS011;24821;51.988;6.020;2023-02-11T10:28:25;27.50;;;15.93;;
39066;SDS011;24821;51.988;6.020;2023-02-11T10:36:27;27.00;;;16.58;;
39066;SDS011;24821;51.988;6.020;2023-02-11T10:38:54;23.48;;;15.13;;
39066;SDS011;24821;51.988;6.020;2023-02-11T10:41:25;24.58;;;16.48;;
39066;SDS011;24821;51.988;6.020;2023-02-11T10:44:01;24.38;;;15.75;;
39066;SDS011;24821;51.988;6.020;2023-02-11T10:46:30;21.58;;;15.02;;
39066;SDS011;24821;51.988;6.020;2023-02-11T10:48:58;18.73;;;14.77;;
39066;SDS011;24821;51.988;6.020;2023-02-11T10:51:25;22.35;;;15.05;;
39066;SDS011;24821;51.988;6.020;2023-02-11T10:56:34;22.92;;;17.95;;
39066;SDS011;24821;51.988;6.020;2023-02-11T10:59:03;19.75;;;15.85;;
39066;SDS011;24821;51.988;6.020;2023-02-11T11:01:51;19.15;;;14.02;;
39066;SDS011;24821;51.988;6.020;2023-02-11T11:06:56;25.13;;;14.57;;
39066;SDS011;24821;51.988;6.020;2023-02-11T11:17:45;28.58;;;14.57;;
39066;SDS011;24821;51.988;6.020;2023-02-11T11:20:13;37.17;;;17.40;;
39066;SDS011;24821;51.988;6.020;2023-02-11T11:22:42;33.10;;;18.60;;
39066;SDS011;24821;51.988;6.020;2023-02-11T11:25:28;24.48;;;17.48;;
39066;SDS011;24821;51.988;6.020;2023-02-11T11:27:57;30.30;;;16.27;;
39066;SDS011;24821;51.988;6.020;2023-02-11T11:30:32;19.35;;;13.30;;
39066;SDS011;24821;51.988;6.020;2023-02-11T11:33:16;25.42;;;15.88;;
39066;SDS011;24821;51.988;6.020;2023-02-11T11:35:58;28.15;;;15.48;;
39066;SDS011;24821;51.988;6.020;2023-02-11T11:38:31;21.15;;;14.57;;
39066;SDS011;24821;51.988;6.020;2023-02-11T11:41:16;21.35;;;16.88;;
39066;SDS011;24821;51.988;6.020;2023-02-11T11:46:37;30.50;;;16.48;;
39066;SDS011;24821;51.988;6.020;2023-02-11T11:51:55;21.50;;;15.45;;
39066;SDS011;24821;51.988;6.020;2023-02-11T11:54:32;24.63;;;16.05;;
39066;SDS011;24821;51.988;6.020;2023-02-11T11:56:59;25.67;;;11.90;;
39066;SDS011;24821;51.988;6.020;2023-02-11T11:59:32;38.40;;;15.13;;
39066;SDS011;24821;51.988;6.020;2023-02-11T12:02:01;16.38;;;12.32;;
39066;SDS011;24821;51.988;6.020;2023-02-11T12:04:49;21.00;;;13.70;;
39066;SDS011;24821;51.988;6.020;2023-02-11T12:10:27;19.30;;;12.68;;
39066;SDS011;24821;51.988;6.020;2023-02-11T12:13:21;19.35;;;12.70;;
39066;SDS011;24821;51.988;6.020;2023-02-11T12:16:04;16.73;;;13.20;;
39066;SDS011;24821;51.988;6.020;2023-02-11T12:19:05;15.77;;;12.07;;
39066;SDS011;24821;51.988;6.020;2023-02-11T12:26:59;14.15;;;11.13;;
39066;SDS011;24821;51.988;6.020;2023-02-11T12:34:52;16.30;;;11.73;;
39066;SDS011;24821;51.988;6.020;2023-02-11T12:51:23;13.10;;;11.07;;
39066;SDS011;24821;51.988;6.020;2023-02-11T12:57:10;20.05;;;10.23;;
39066;SDS011;24821;51.988;6.020;2023-02-11T13:05:19;11.25;;;9.63;;
39066;SDS011;24821;51.988;6.020;2023-02-11T13:08:03;8.05;;;7.20;;
39066;SDS011;24821;51.988;6.020;2023-02-11T13:10:40;8.23;;;6.68;;
39066;SDS011;24821;51.988;6.020;2023-02-11T13:13:14;8.27;;;7.47;;
39066;SDS011;24821;51.988;6.020;2023-02-11T13:15:46;10.15;;;7.65;;
39066;SDS011;24821;51.988;6.020;2023-02-11T13:18:18;21.20;;;19.45;;
39066;SDS011;24821;51.988;6.020;2023-02-11T13:21:13;14.40;;;7.32;;
39066;SDS011;24821;51.988;6.020;2023-02-11T13:23:54;7.30;;;6.63;;
39066;SDS011;24821;51.988;6.020;2023-02-11T13:26:37;8.02;;;7.28;;
39066;SDS011;24821;51.988;6.020;2023-02-11T13:29:29;7.63;;;6.90;;
39066;SDS011;24821;51.988;6.020;2023-02-11T13:32:04;8.00;;;6.85;;
39066;SDS011;24821;51.988;6.020;2023-02-11T13:39:56;8.07;;;7.32;;
39066;SDS011;24821;51.988;6.020;2023-02-11T13:42:49;9.10;;;7.15;;
39066;SDS011;24821;51.988;6.020;2023-02-11T13:45:16;9.43;;;7.20;;
39066;SDS011;24821;51.988;6.020;2023-02-11T13:48:03;8.02;;;7.30;;
39066;SDS011;24821;51.988;6.020;2023-02-11T13:50:35;6.68;;;6.07;;
39066;SDS011;24821;51.988;6.020;2023-02-11T13:53:03;8.00;;;6.97;;
39066;SDS011;24821;51.988;6.020;2023-02-11T13:55:31;8.15;;;7.22;;
39066;SDS011;24821;51.988;6.020;2023-02-11T13:58:14;8.70;;;7.40;;
39066;SDS011;24821;51.988;6.020;2023-02-11T14:00:44;10.23;;;7.55;;
39066;SDS011;24821;51.988;6.020;2023-02-11T14:14:13;10.27;;;7.82;;
39066;SDS011;24821;51.988;6.020;2023-02-11T14:19:33;10.68;;;7.70;;
39066;SDS011;24821;51.988;6.020;2023-02-11T14:35:15;10.90;;;7.63;;
39066;SDS011;24821;51.988;6.020;2023-02-11T14:42:56;11.35;;;8.48;;
39066;SDS011;24821;51.988;6.020;2023-02-11T14:45:40;9.38;;;8.35;;
39066;SDS011;24821;51.988;6.020;2023-02-11T14:48:16;10.93;;;8.23;;
39066;SDS011;24821;51.988;6.020;2023-02-11T14:50:44;13.52;;;8.05;;
39066;SDS011;24821;51.988;6.020;2023-02-11T14:53:17;8.73;;;7.78;;
39066;SDS011;24821;51.988;6.020;2023-02-11T14:55:47;11.05;;;9.30;;
39066;SDS011;24821;51.988;6.020;2023-02-11T15:00:53;9.85;;;8.25;;
39066;SDS011;24821;51.988;6.020;2023-02-11T15:03:26;13.70;;;9.05;;
39066;SDS011;24821;51.988;6.020;2023-02-11T15:05:55;9.60;;;7.95;;
39066;SDS011;24821;51.988;6.020;2023-02-11T15:08:59;10.20;;;7.43;;
39066;SDS011;24821;51.988;6.020;2023-02-11T15:11:30;9.43;;;8.20;;
39066;SDS011;24821;51.988;6.020;2023-02-11T15:14:00;10.38;;;8.68;;
39066;SDS011;24821;51.988;6.020;2023-02-11T15:16:41;13.30;;;8.35;;
39066;SDS011;24821;51.988;6.020;2023-02-11T15:19:20;13.70;;;9.00;;
39066;SDS011;24821;51.988;6.020;2023-02-11T15:21:49;10.25;;;8.75;;
39066;SDS011;24821;51.988;6.020;2023-02-11T15:27:00;10.35;;;8.38;;
39066;SDS011;24821;51.988;6.020;2023-02-11T15:29:49;34.50;;;18.38;;
39066;SDS011;24821;51.988;6.020;2023-02-11T15:32:15;13.55;;;9.90;;
39066;SDS011;24821;51.988;6.020;2023-02-11T15:34:46;11.13;;;8.98;;
39066;SDS011;24821;51.988;6.020;2023-02-11T15:37:24;14.65;;;9.15;;
39066;SDS011;24821;51.988;6.020;2023-02-11T15:39:52;10.05;;;7.63;;
39066;SDS011;24821;51.988;6.020;2023-02-11T15:45:10;8.15;;;7.38;;
39066;SDS011;24821;51.988;6.020;2023-02-11T15:47:36;12.20;;;8.05;;
39066;SDS011;24821;51.988;6.020;2023-02-11T15:50:03;8.95;;;8.13;;
39066;SDS011;24821;51.988;6.020;2023-02-11T15:52:30;8.73;;;7.80;;
39066;SDS011;24821;51.988;6.020;2023-02-11T15:54:56;7.82;;;6.80;;
39066;SDS011;24821;51.988;6.020;2023-02-11T15:57:25;11.23;;;7.65;;
39066;SDS011;24821;51.988;6.020;2023-02-11T15:59:51;13.98;;;7.82;;
39066;SDS011;24821;51.988;6.020;2023-02-11T16:02:19;12.60;;;8.85;;
39066;SDS011;24821;51.988;6.020;2023-02-11T16:04:56;10.73;;;7.68;;
39066;SDS011;24821;51.988;6.020;2023-02-11T16:10:04;9.88;;;7.60;;
39066;SDS011;24821;51.988;6.020;2023-02-11T16:12:44;9.63;;;7.55;;
39066;SDS011;24821;51.988;6.020;2023-02-11T16:15:29;11.30;;;7.38;;
39066;SDS011;24821;51.988;6.020;2023-02-11T16:18:14;9.18;;;7.28;;
39066;SDS011;24821;51.988;6.020;2023-02-11T16:20:51;8.27;;;6.78;;
39066;SDS011;24821;51.988;6.020;2023-02-11T16:23:20;7.88;;;7.18;;
39066;SDS011;24821;51.988;6.020;2023-02-11T16:25:53;10.60;;;7.28;;
39066;SDS011;24821;51.988;6.020;2023-02-11T16:28:23;9.02;;;7.25;;
39066;SDS011;24821;51.988;6.020;2023-02-11T16:30:50;8.13;;;7.28;;
39066;SDS011;24821;51.988;6.020;2023-02-11T16:33:17;8.65;;;7.60;;
39066;SDS011;24821;51.988;6.020;2023-02-11T16:35:43;11.13;;;7.75;;
39066;SDS011;24821;51.988;6.020;2023-02-11T16:38:11;14.52;;;7.93;;
39066;SDS011;24821;51.988;6.020;2023-02-11T16:40:37;9.73;;;5.85;;
39066;SDS011;24821;51.988;6.020;2023-02-11T16:43:03;8.07;;;7.00;;
39066;SDS011;24821;51.988;6.020;2023-02-11T16:45:28;16.42;;;10.50;;
39066;SDS011;24821;51.988;6.020;2023-02-11T16:47:54;11.35;;;8.90;;
39066;SDS011;24821;51.988;6.020;2023-02-11T16:50:21;9.80;;;7.70;;
39066;SDS011;24821;51.988;6.020;2023-02-11T16:52:47;12.02;;;8.02;;
39066;SDS011;24821;51.988;6.020;2023-02-11T16:55:14;9.02;;;6.78;;
39066;SDS011;24821;51.988;6.020;2023-02-11T16:57:39;8.43;;;6.32;;
39066;SDS011;24821;51.988;6.020;2023-02-11T17:00:05;7.45;;;6.70;;
39066;SDS011;24821;51.988;6.020;2023-02-11T17:02:33;8.00;;;6.25;;
39066;SDS011;24821;51.988;6.020;2023-02-11T17:05:00;9.50;;;7.05;;
39066;SDS011;24821;51.988;6.020;2023-02-11T17:07:28;12.05;;;8.75;;
39066;SDS011;24821;51.988;6.020;2023-02-11T17:09:55;9.57;;;7.75;;
39066;SDS011;24821;51.988;6.020;2023-02-11T17:12:21;10.85;;;7.03;;
39066;SDS011;24821;51.988;6.020;2023-02-11T17:14:49;6.15;;;5.32;;
39066;SDS011;24821;51.988;6.020;2023-02-11T17:17:15;7.25;;;5.18;;
39066;SDS011;24821;51.988;6.020;2023-02-11T17:19:41;5.82;;;5.32;;
39066;SDS011;24821;51.988;6.020;2023-02-11T17:22:07;5.07;;;4.57;;
39066;SDS011;24821;51.988;6.020;2023-02-11T17:24:32;7.85;;;5.47;;
39066;SDS011;24821;51.988;6.020;2023-02-11T17:26:58;5.88;;;5.35;;
39066;SDS011;24821;51.988;6.020;2023-02-11T17:29:23;3.97;;;3.65;;
39066;SDS011;24821;51.988;6.020;2023-02-11T17:31:50;5.40;;;4.72;;